Last 30 Days

O'Neill Sea Odyssey

Daily Data | America/Los_Angeles
as of 9/28/22 12:30 AM PDT
Date Daily Max Temp (°F) Time of Max Temp Daily Min Temp (°F) Time of Min Temp Daily Rain (In) Seasonal Rainfall (In) Wind Spd (mph) Daily Max Wind (mph) Time of Max Wind Max Wind Dir (°) Dew Pt (°F) Max RH (%) Min RH (%) MinBV Day (V)
9/26/22 64.9 1628 56.8 0815 0.00 0.68 4.7 19.1 1352 SW | 224 57.0 100 76 13.3
9/25/22 60.5 1658 57.1 0721 0.00 0.68 5.6 18.6 1629 SW | 230 57.3 100 89 13.3
9/24/22 60.5 1408 55.3 0710 0.00 0.68 3.1 12.1 1441 SSW | 209 57.3 100 91 13.4
9/23/22 83.1 1546 53.7 0715 0.00 0.68 5.8 17.1 1210 SW | 228 56.0 94 32 13.1
9/22/22 76.3 1818 53.3 0721 0.00 0.68 5.2 19.5 1506 WSW | 257 55.7 91 51 13.2
9/21/22 70.0 1829 58.5 0711 0.01 0.68 6.2 20.4 1532 WSW | 243 55.8 92 61 13.3
9/20/22 66.2 1554 54.6 0712 0.03 0.67 5.6 14.2 0428 NNW | 346 55.6 98 66 13.3
9/19/22 64.2 1447 57.7 0053 0.09 0.64 4.7 11.2 1649 SW | 215 59.7 100 86 13.3
9/18/22 64.2 1320 57.5 0802 0.46 0.55 12.8 39.9 1935 SSW | 196 58.0 98 76 13.4
9/17/22 69.4 1523 52.7 0337 0.00 0.09 7.9 30.2 1622 WSW | 254 54.4 95 60 13.3
9/16/22 69.2 1700 56.2 0059 0.00 0.09 5.3 20.4 1401 SW | 228 54.5 94 60 13.3
9/15/22 72.2 1822 54.2 0707 0.00 0.09 8.6 27.0 1442 WSW | 250 53.4 97 48 13.3
9/14/22 69.6 1722 53.0 0715 0.00 0.09 7.1 27.8 1445 SW | 232 55.2 100 57 13.3
9/13/22 75.1 1736 56.8 0644 0.00 0.09 7.2 26.5 1245 SW | 229 55.5 96 44 13.2
9/12/22 75.7 1520 58.1 0752 0.00 0.09 4.6 14.0 1528 SSE | 151 58.6 100 39 13.2
9/11/22 82.8 1610 60.8 2357 0.00 0.09 5.3 25.2 1615 WSW | 247 57.2 94 12 13.1
9/10/22 70.7 1641 57.7 0637 0.00 0.09 3.8 12.7 1713 SW | 223 60.9 100 79 13.2
9/9/22 73.2 1554 57.9 0711 0.00 0.09 4.6 14.7 1736 SW | 226 58.3 99 56 13.2
9/8/22 69.4 1442 61.4 0059 0.00 0.09 4.9 18.6 1202 SW | 222 60.0 98 71 13.2
9/7/22 69.3 1311 60.4 0705 0.00 0.09 5.0 21.5 1359 SW | 228 60.9 97 76 13.3
9/6/22 79.9 1055 61.0 0209 0.00 0.09 3.6 14.7 0908 S | 171 59.0 95 40 13.2
9/5/22 79.4 0919 59.8 0606 0.00 0.09 4.6 16.4 1314 SW | 223 57.5 96 40 13.2
9/4/22 73.0 1238 56.2 0701 0.00 0.09 4.7 18.6 1339 SW | 227 57.4 95 52 13.2
9/3/22 77.4 1535 55.4 0643 0.00 0.09 4.1 14.9 1836 ESE | 122 56.7 95 48 13.2
9/2/22 71.0 1519 54.3 0339 0.00 0.09 4.2 14.9 1607 SE | 130 56.7 100 61 13.2
9/1/22 73.6 1512 54.0 0659 0.00 0.09 4.8 13.2 1609 SE | 134 55.8 100 48 13.2
8/31/22 75.7 1609 51.8 0648 0.00 0.09 5.0 14.9 1819 ESE | 112 55.0 94 49 13.2
8/30/22 64.1 1826 52.8 0648 0.00 0.09 7.5 22.4 1530 SW | 229 55.0 97 74 13.3
8/29/22 62.0 0503 55.6 0058 0.00 0.09 6.0 16.7 1515 SW | 223 55.9 92 80 13.4
Max 83.1 - 61.4 - 0.46 0.68 12.8 39.9 - - 60.9 100 91 13.4
Avg - - - - - - 5.6 - - - 56.9 - - -
Min 60.5 - 51.8 - 0.00 0.09 3.1 11.2 - - 53.4 91 12 13.1